Time,TemperatureF,DewpointF,PressureIn,WindDirection,WindDirectionDegrees,WindSpeedMPH,WindSpeedGustMPH,Humidity,HourlyPrecipIn,Conditions,Clouds,dailyrainin,SolarRadiationWatts/m^2,SoftwareType,DateUTC
2013-01-15 00:02:00,62.0,58.0,-100.00,SSE,168,4.0,7.0,88,0.00,,,0.00,0.000000,,2013-01-15 10:02:00,
2013-01-15 00:11:00,62.0,58.0,-100.00,SSE,168,4.0,7.0,88,0.00,,,0.00,0.000000,,2013-01-15 10:11:00,
2013-01-15 00:22:00,62.0,58.0,-100.00,SSE,168,4.0,7.0,88,0.00,,,0.00,0.000000,,2013-01-15 10:22:00,
2013-01-15 00:32:00,62.0,58.0,-100.00,SSE,168,4.0,7.0,88,0.00,,,0.00,0.000000,,2013-01-15 10:32:00,
2013-01-15 00:52:00,63.0,59.0,-100.00,SSE,154,4.0,7.0,86,0.00,,,0.00,0.000000,,2013-01-15 10:52:00,
2013-01-15 01:02:00,63.0,59.0,-100.00,SSE,154,4.0,7.0,86,0.00,,,0.00,0.000000,,2013-01-15 11:02:00,
2013-01-15 01:12:00,63.0,59.0,-100.00,SSE,154,4.0,7.0,86,0.00,,,0.00,0.000000,,2013-01-15 11:12:00,
2013-01-15 01:22:00,63.0,59.0,-100.00,SSE,154,4.0,7.0,86,0.00,,,0.00,0.000000,,2013-01-15 11:22:00,
2013-01-15 01:32:00,63.0,59.0,-100.00,SSE,154,4.0,7.0,86,0.00,,,0.00,0.000000,,2013-01-15 11:32:00,
2013-01-15 01:53:00,61.0,56.0,-100.00,SE,140,3.0,7.0,85,0.00,,,0.00,0.000000,,2013-01-15 11:53:00,
2013-01-15 02:02:00,61.0,56.0,-100.00,SE,140,3.0,7.0,85,0.00,,,0.00,0.000000,,2013-01-15 12:02:00,
2013-01-15 02:12:00,61.0,56.0,-100.00,SE,140,3.0,7.0,85,0.00,,,0.00,0.000000,,2013-01-15 12:12:00,
2013-01-15 02:22:00,61.0,56.0,-100.00,SE,140,3.0,7.0,85,0.00,,,0.00,0.000000,,2013-01-15 12:22:00,
2013-01-15 02:32:00,61.0,56.0,-100.00,SE,140,3.0,7.0,85,0.00,,,0.00,0.000000,,2013-01-15 12:32:00,
2013-01-15 02:53:00,62.0,57.0,-100.00,SE,126,2.0,6.0,84,0.00,,,0.00,0.000000,,2013-01-15 12:53:00,
2013-01-15 03:03:00,62.0,57.0,-100.00,SE,126,2.0,6.0,84,0.00,,,0.00,0.000000,,2013-01-15 13:03:00,
2013-01-15 03:12:00,62.0,57.0,-100.00,SE,126,2.0,6.0,84,0.00,,,0.00,0.000000,,2013-01-15 13:12:00,
2013-01-15 03:23:00,62.0,57.0,-100.00,SE,126,2.0,6.0,84,0.00,,,0.00,0.000000,,2013-01-15 13:23:00,
2013-01-15 03:32:00,62.0,57.0,-100.00,SE,126,2.0,6.0,84,0.00,,,0.00,0.000000,,2013-01-15 13:32:00,
2013-01-15 03:53:00,62.0,57.0,-100.00,ESE,117,2.0,6.0,83,0.00,,,0.00,0.000000,,2013-01-15 13:53:00,
2013-01-15 04:02:00,62.0,57.0,-100.00,ESE,117,2.0,6.0,83,0.00,,,0.00,0.000000,,2013-01-15 14:02:00,
2013-01-15 04:12:00,62.0,57.0,-100.00,ESE,117,2.0,6.0,83,0.00,,,0.00,0.000000,,2013-01-15 14:12:00,
2013-01-15 04:23:00,62.0,57.0,-100.00,ESE,117,2.0,6.0,83,0.00,,,0.00,0.000000,,2013-01-15 14:23:00,
2013-01-15 04:32:00,62.0,57.0,-100.00,ESE,117,2.0,6.0,83,0.00,,,0.00,0.000000,,2013-01-15 14:32:00,
2013-01-15 04:53:00,64.0,59.0,-100.00,SE,134,2.0,6.0,83,0.00,,,0.00,0.000000,,2013-01-15 14:53:00,
2013-01-15 05:03:00,64.0,59.0,-100.00,SE,134,2.0,6.0,83,0.00,,,0.00,0.000000,,2013-01-15 15:03:00,
2013-01-15 05:12:00,64.0,59.0,-100.00,SE,134,2.0,6.0,83,0.00,,,0.00,0.000000,,2013-01-15 15:12:00,
2013-01-15 05:23:00,64.0,59.0,-100.00,SE,134,2.0,6.0,83,0.00,,,0.00,0.000000,,2013-01-15 15:23:00,
2013-01-15 05:33:00,64.0,59.0,-100.00,SE,134,2.0,6.0,83,0.00,,,0.00,0.000000,,2013-01-15 15:33:00,
2013-01-15 06:02:00,61.0,59.0,-100.00,ESE,122,4.0,6.0,93,0.00,,,0.00,0.000000,,2013-01-15 16:02:00,
2013-01-15 06:12:00,61.0,59.0,-100.00,ESE,122,4.0,6.0,93,0.00,,,0.00,0.000000,,2013-01-15 16:12:00,
2013-01-15 06:22:00,61.0,59.0,-100.00,ESE,122,4.0,6.0,93,0.00,,,0.00,0.000000,,2013-01-15 16:22:00,
2013-01-15 06:32:00,61.0,59.0,-100.00,ESE,122,4.0,6.0,93,0.00,,,0.00,0.000000,,2013-01-15 16:32:00,
2013-01-15 06:53:00,61.0,59.0,-100.00,SSE,159,3.0,6.0,92,0.00,,,0.00,0.000000,,2013-01-15 16:53:00,
2013-01-15 07:03:00,61.0,59.0,-100.00,SSE,159,3.0,6.0,92,0.00,,,0.00,0.000000,,2013-01-15 17:03:00,
2013-01-15 07:12:00,61.0,59.0,-100.00,SSE,159,3.0,6.0,92,0.00,,,0.00,0.000000,,2013-01-15 17:12:00,
2013-01-15 07:22:00,61.0,59.0,-100.00,SSE,159,3.0,6.0,92,0.00,,,0.00,0.000000,,2013-01-15 17:22:00,
2013-01-15 07:33:00,61.0,59.0,-100.00,SSE,159,3.0,6.0,92,0.00,,,0.00,0.000000,,2013-01-15 17:33:00,
2013-01-15 08:03:00,63.0,60.0,-100.00,SSE,157,2.0,8.0,90,0.00,,,0.00,10.000000,,2013-01-15 18:03:00,
2013-01-15 08:12:00,63.0,60.0,-100.00,SSE,157,2.0,8.0,90,0.00,,,0.00,10.000000,,2013-01-15 18:12:00,
2013-01-15 08:23:00,63.0,60.0,-100.00,SSE,157,2.0,8.0,90,0.00,,,0.00,10.000000,,2013-01-15 18:23:00,
2013-01-15 08:33:00,63.0,60.0,-100.00,SSE,157,2.0,8.0,90,0.00,,,0.00,10.000000,,2013-01-15 18:33:00,
2013-01-15 09:03:00,70.0,62.0,-100.00,NNW,335,3.0,5.0,77,0.00,,,0.00,248.000000,,2013-01-15 19:03:00,
2013-01-15 09:12:00,70.0,62.0,-100.00,NNW,335,3.0,5.0,77,0.00,,,0.00,248.000000,,2013-01-15 19:12:00,
2013-01-15 09:22:00,70.0,62.0,-100.00,NNW,335,3.0,5.0,77,0.00,,,0.00,248.000000,,2013-01-15 19:22:00,
2013-01-15 09:33:00,70.0,62.0,-100.00,NNW,335,3.0,5.0,77,0.00,,,0.00,248.000000,,2013-01-15 19:33:00,
2013-01-15 10:03:00,68.0,63.0,-100.00,NW,304,4.0,8.0,83,0.00,,,0.00,319.000000,,2013-01-15 20:03:00,
2013-01-15 10:12:00,68.0,63.0,-100.00,NW,304,4.0,8.0,83,0.00,,,0.00,319.000000,,2013-01-15 20:12:00,
2013-01-15 10:22:00,68.0,63.0,-100.00,NW,304,4.0,8.0,83,0.00,,,0.00,319.000000,,2013-01-15 20:22:00,
2013-01-15 10:33:00,68.0,63.0,-100.00,NW,304,4.0,8.0,83,0.00,,,0.00,319.000000,,2013-01-15 20:33:00,
2013-01-15 10:53:00,69.0,63.0,-100.00,NE,50,2.0,9.0,80,0.00,,,0.00,310.000000,,2013-01-15 20:53:00,
2013-01-15 11:03:00,69.0,63.0,-100.00,NE,50,2.0,9.0,80,0.00,,,0.00,310.000000,,2013-01-15 21:03:00,
2013-01-15 11:12:00,69.0,63.0,-100.00,NE,50,2.0,9.0,80,0.00,,,0.00,310.000000,,2013-01-15 21:12:00,
2013-01-15 11:22:00,69.0,63.0,-100.00,NE,50,2.0,9.0,80,0.00,,,0.00,310.000000,,2013-01-15 21:22:00,
2013-01-15 11:33:00,69.0,63.0,-100.00,NE,50,2.0,9.0,80,0.00,,,0.00,310.000000,,2013-01-15 21:33:00,
2013-01-15 12:02:00,73.0,65.0,-100.00,NNE,28,4.0,12.0,75,0.00,,,0.00,610.000000,,2013-01-15 22:02:00,
2013-01-15 12:12:00,73.0,65.0,-100.00,NNE,28,4.0,12.0,75,0.00,,,0.00,610.000000,,2013-01-15 22:12:00,
2013-01-15 12:22:00,73.0,65.0,-100.00,NNE,28,4.0,12.0,75,0.00,,,0.00,610.000000,,2013-01-15 22:22:00,
2013-01-15 12:32:00,73.0,65.0,-100.00,NNE,28,4.0,12.0,75,0.00,,,0.00,610.000000,,2013-01-15 22:32:00,
2013-01-15 13:02:00,68.0,65.0,-100.00,NW,316,6.0,13.0,89,0.00,,,0.00,403.000000,,2013-01-15 23:02:00,
2013-01-15 13:12:00,68.0,65.0,-100.00,NW,316,6.0,13.0,89,0.00,,,0.00,403.000000,,2013-01-15 23:12:00,
2013-01-15 13:22:00,68.0,65.0,-100.00,NW,316,6.0,13.0,89,0.00,,,0.00,403.000000,,2013-01-15 23:22:00,
2013-01-15 13:32:00,68.0,65.0,-100.00,NW,316,6.0,13.0,89,0.00,,,0.00,403.000000,,2013-01-15 23:32:00,
2013-01-15 14:02:00,65.0,64.0,-100.00,North,349,4.0,11.0,96,0.00,,,0.00,133.000000,,2013-01-16 00:02:00,
2013-01-15 14:12:00,65.0,64.0,-100.00,North,349,4.0,11.0,96,0.00,,,0.00,133.000000,,2013-01-16 00:12:00,
2013-01-15 14:22:00,65.0,64.0,-100.00,North,349,4.0,11.0,96,0.00,,,0.00,133.000000,,2013-01-16 00:22:00,
2013-01-15 14:32:00,65.0,64.0,-100.00,North,349,4.0,11.0,96,0.00,,,0.00,133.000000,,2013-01-16 00:32:00,
2013-01-15 14:53:00,65.0,64.0,-100.00,NW,320,2.0,10.0,98,0.00,,,0.00,112.000000,,2013-01-16 00:53:00,
2013-01-15 15:02:00,65.0,64.0,-100.00,NW,320,2.0,10.0,98,0.00,,,0.00,112.000000,,2013-01-16 01:02:00,
2013-01-15 15:12:00,65.0,64.0,-100.00,NW,320,2.0,10.0,98,0.00,,,0.00,112.000000,,2013-01-16 01:12:00,
2013-01-15 15:22:00,65.0,64.0,-100.00,NW,320,2.0,10.0,98,0.00,,,0.00,112.000000,,2013-01-16 01:22:00,
2013-01-15 15:32:00,65.0,64.0,-100.00,NW,320,2.0,10.0,98,0.00,,,0.00,112.000000,,2013-01-16 01:32:00,
2013-01-15 16:02:00,67.0,66.0,-100.00,NNW,341,3.0,6.0,98,0.00,,,0.00,179.000000,,2013-01-16 02:02:00,
2013-01-15 16:12:00,67.0,66.0,-100.00,NNW,341,3.0,6.0,98,0.00,,,0.00,179.000000,,2013-01-16 02:12:00,
2013-01-15 16:22:00,67.0,66.0,-100.00,NNW,341,3.0,6.0,98,0.00,,,0.00,179.000000,,2013-01-16 02:22:00,
2013-01-15 16:32:00,67.0,66.0,-100.00,NNW,341,3.0,6.0,98,0.00,,,0.00,179.000000,,2013-01-16 02:32:00,
2013-01-15 16:53:00,66.0,66.0,-100.00,NNW,345,4.0,6.0,99,0.00,,,0.00,75.000000,,2013-01-16 02:53:00,
2013-01-15 17:02:00,66.0,66.0,-100.00,NNW,345,4.0,6.0,99,0.00,,,0.00,75.000000,,2013-01-16 03:02:00,
2013-01-15 17:11:00,66.0,66.0,-100.00,NNW,345,4.0,6.0,99,0.00,,,0.00,75.000000,,2013-01-16 03:11:00,
2013-01-15 17:22:00,66.0,66.0,-100.00,NNW,345,4.0,6.0,99,0.00,,,0.00,75.000000,,2013-01-16 03:22:00,
2013-01-15 17:32:00,66.0,66.0,-100.00,NNW,345,4.0,6.0,99,0.00,,,0.00,75.000000,,2013-01-16 03:32:00,
2013-01-15 17:53:00,64.0,64.0,-100.00,North,9,3.0,7.0,99,0.00,,,0.00,45.000000,,2013-01-16 03:53:00,
2013-01-15 18:02:00,64.0,64.0,-100.00,North,9,3.0,7.0,99,0.00,,,0.00,45.000000,,2013-01-16 04:02:00,
2013-01-15 18:12:00,64.0,64.0,-100.00,North,9,3.0,7.0,99,0.00,,,0.00,45.000000,,2013-01-16 04:12:00,
2013-01-15 18:22:00,64.0,64.0,-100.00,North,9,3.0,7.0,99,0.00,,,0.00,45.000000,,2013-01-16 04:22:00,
2013-01-15 18:32:00,64.0,64.0,-100.00,North,9,3.0,7.0,99,0.00,,,0.00,45.000000,,2013-01-16 04:32:00,
2013-01-15 19:03:00,64.0,64.0,-100.00,NNW,348,1.0,5.0,99,0.00,,,0.00,3.000000,,2013-01-16 05:03:00,
2013-01-15 19:12:00,64.0,64.0,-100.00,NNW,348,1.0,5.0,99,0.00,,,0.00,3.000000,,2013-01-16 05:12:00,
2013-01-15 19:22:00,64.0,64.0,-100.00,NNW,348,1.0,5.0,99,0.00,,,0.00,3.000000,,2013-01-16 05:22:00,
2013-01-15 19:32:00,64.0,64.0,-100.00,NNW,348,1.0,5.0,99,0.00,,,0.00,3.000000,,2013-01-16 05:32:00,
2013-01-15 20:02:00,64.0,64.0,-100.00,NE,56,1.0,3.0,99,0.00,,,0.00,0.000000,,2013-01-16 06:02:00,
2013-01-15 20:12:00,64.0,64.0,-100.00,NE,56,1.0,3.0,99,0.00,,,0.00,0.000000,,2013-01-16 06:12:00,
2013-01-15 20:22:00,64.0,64.0,-100.00,NE,56,1.0,3.0,99,0.00,,,0.00,0.000000,,2013-01-16 06:22:00,
2013-01-15 20:32:00,64.0,64.0,-100.00,NE,56,1.0,3.0,99,0.00,,,0.00,0.000000,,2013-01-16 06:32:00,
2013-01-15 20:53:00,64.0,64.0,-100.00,North,1,3.0,6.0,99,0.00,,,0.00,0.000000,,2013-01-16 06:53:00,
2013-01-15 21:02:00,64.0,64.0,-100.00,North,1,3.0,6.0,99,0.00,,,0.00,0.000000,,2013-01-16 07:02:00,
2013-01-15 21:11:00,64.0,64.0,-100.00,North,1,3.0,6.0,99,0.00,,,0.00,0.000000,,2013-01-16 07:11:00,
2013-01-15 21:22:00,64.0,64.0,-100.00,North,1,3.0,6.0,99,0.00,,,0.00,0.000000,,2013-01-16 07:22:00,
2013-01-15 21:32:00,64.0,64.0,-100.00,North,1,3.0,6.0,99,0.00,,,0.00,0.000000,,2013-01-16 07:32:00,
2013-01-15 22:02:00,65.0,65.0,-100.00,SSW,196,3.0,6.0,99,0.00,,,0.00,0.000000,,2013-01-16 08:02:00,
2013-01-15 22:12:00,65.0,65.0,-100.00,SSW,196,3.0,6.0,99,0.00,,,0.00,0.000000,,2013-01-16 08:12:00,
2013-01-15 22:22:00,65.0,65.0,-100.00,SSW,196,3.0,6.0,99,0.00,,,0.00,0.000000,,2013-01-16 08:22:00,
2013-01-15 22:32:00,65.0,65.0,-100.00,SSW,196,3.0,6.0,99,0.00,,,0.00,0.000000,,2013-01-16 08:32:00,
2013-01-15 23:02:00,65.0,65.0,-100.00,SSE,166,2.0,4.0,99,0.00,,,0.00,0.000000,,2013-01-16 09:02:00,
2013-01-15 23:11:00,65.0,65.0,-100.00,SSE,166,2.0,4.0,99,0.00,,,0.00,0.000000,,2013-01-16 09:11:00,
2013-01-15 23:22:00,65.0,65.0,-100.00,SSE,166,2.0,4.0,99,0.00,,,0.00,0.000000,,2013-01-16 09:22:00,
2013-01-15 23:32:00,65.0,65.0,-100.00,SSE,166,2.0,4.0,99,0.00,,,0.00,0.000000,,2013-01-16 09:32:00,